Alba Rousing — OVIL2 — position and weather

sailwx.info

Track history (hours):
 
Tides and Currents Weather Stations Pressure Air Temp Water Temp Dewpoint Dewpoint Depression Visibility Wind Speed Wind Dir Waves Ship Positions

Alba Rousing

Last reported at 2017-Aug-17 15:26 UTC. Time now 2017-Aug-17 15:37 UTC.
Position N 58°03' E 006°59'.

Length 79 m; draft 2.4 m.

Type: Ship. MMSI: 220439000.

Date/timePositionNaut miles runAvg speedWind from/ knotsBaromVisibWave heightAir tempDewpointWater temp
2017-Aug-17 15:26N 58°03' E 006°59'0 0.0
2017-Aug-17 14:59N 58°03' E 006°59'0 0.0
2017-Aug-17 14:29N 58°03' E 006°59'0 0.0
2017-Aug-17 13:56N 58°03' E 006°59'0 0.0
2017-Aug-17 13:29N 58°03' E 006°59'0 0.0
2017-Aug-17 12:59N 58°03' E 006°59'0 0.0
2017-Aug-17 12:29N 58°03' E 006°59'0 0.0
2017-Aug-17 11:59N 58°03' E 006°59'0 0.0
2017-Aug-17 11:29N 58°03' E 006°59'0 0.1
2017-Aug-17 11:01N 58°03' E 006°59'3 6.2
2017-Aug-17 10:30N 58°03' E 006°53'3 6.2
2017-Aug-17 10:00N 58°01' E 006°51'3 5.0
2017-Aug-17 09:31N 57°58' E 006°53'1 1.3
2017-Aug-17 09:00N 57°59' E 006°53'2 3.2
2017-Aug-17 08:30N 58°00' E 006°52'2 4.4
2017-Aug-17 08:00N 57°58' E 006°52'5 9.5
2017-Aug-17 07:30N 57°54' E 006°54'510.0
2017-Aug-17 07:00N 57°49' E 006°57'5 9.7
2017-Aug-17 06:30N 57°44' E 007°00'114 9.1
2017-Aug-16 18:02N 55°52' E 007°35'1 9.5
2017-Aug-16 17:56N 55°51' E 007°35'4 9.3
2017-Aug-16 17:30N 55°47' E 007°33'5 9.1
2017-Aug-16 17:00N 55°43' E 007°30'4 8.9
2017-Aug-16 16:30N 55°39' E 007°28'4 8.7
2017-Aug-16 16:00N 55°35' E 007°25'4 8.8
2017-Aug-16 15:30N 55°30' E 007°26'4 8.7
2017-Aug-16 15:00N 55°26' E 007°26'4 8.7
2017-Aug-16 14:30N 55°21' E 007°27'4 8.8
2017-Aug-16 14:00N 55°17' E 007°27'4 8.6
2017-Aug-16 13:30N 55°13' E 007°27'4 8.6
2017-Aug-16 13:00N 55°09' E 007°26'4 8.7
2017-Aug-16 12:30N 55°04' E 007°26'4 8.8
2017-Aug-16 12:00N 54°60' E 007°26'5 9.0
2017-Aug-16 11:30N 54°55' E 007°26'5 9.2
2017-Aug-16 11:00N 54°51' E 007°26'4 9.1
2017-Aug-16 10:30N 54°46' E 007°26'56 9.1
2017-Aug-16 04:18N 53°51' E 007°47'3 8.8
2017-Aug-16 03:58N 53°48' E 007°48'3 6.3
2017-Aug-16 03:26N 53°46' E 007°52'0 0.7
2017-Aug-16 03:00N 53°46' E 007°52'0 0.0
2017-Aug-16 02:26N 53°46' E 007°52'0 0.0
2017-Aug-16 01:52N 53°46' E 007°52'0 0.0
2017-Aug-16 01:28N 53°46' E 007°52'0 0.0
2017-Aug-16 00:52N 53°46' E 007°52'0 0.0
2017-Aug-16 00:28N 53°46' E 007°52'0 0.0
2017-Aug-15 23:58N 53°46' E 007°52'0 0.0
2017-Aug-15 23:28N 53°46' E 007°52'0 0.0
2017-Aug-15 22:55N 53°46' E 007°52'0 0.0
2017-Aug-15 22:28N 53°46' E 007°52'0 0.0
2017-Aug-15 21:58N 53°46' E 007°52'0 0.0
2017-Aug-15 21:22N 53°46' E 007°52'0 0.0
2017-Aug-15 20:58N 53°46' E 007°52'0 0.0
2017-Aug-15 20:04N 53°46' E 007°52'0 0.0
2017-Aug-15 19:58N 53°46' E 007°52'0 0.0
2017-Aug-15 18:28N 53°46' E 007°52'0 0.0
2017-Aug-15 16:57N 53°46' E 007°52'0 0.0
2017-Aug-15 16:29N 53°46' E 007°52'0 0.0
2017-Aug-15 16:00N 53°46' E 007°52'61 2.8
2017-Aug-14 18:27N 54°45' E 007°24'3 7.8
2017-Aug-14 18:00N 54°48' E 007°24'4 7.8
2017-Aug-14 17:30N 54°52' E 007°24'4 7.7
2017-Aug-14 17:00N 54°56' E 007°24'4 7.7
2017-Aug-14 16:30N 55°00' E 007°25'4 7.8
2017-Aug-14 16:01N 55°04' E 007°24'4 7.8
2017-Aug-14 15:30N 55°08' E 007°24'4 7.9
2017-Aug-14 15:00N 55°12' E 007°24'4 8.2
2017-Aug-14 14:30N 55°16' E 007°24'4 8.4
2017-Aug-14 14:00N 55°20' E 007°25'5 8.5
2017-Aug-14 13:25N 55°25' E 007°25'3 8.3
2017-Aug-14 13:00N 55°29' E 007°25'4 8.3
2017-Aug-14 12:30N 55°33' E 007°26'4 8.4
2017-Aug-14 12:00N 55°37' E 007°26'4 8.2
2017-Aug-14 11:30N 55°41' E 007°28'4 8.2
2017-Aug-14 11:00N 55°45' E 007°31'4 8.0
2017-Aug-14 10:29N 55°49' E 007°33'45 8.0
2017-Aug-14 04:54N 56°33' E 007°42'4 9.1
2017-Aug-14 04:29N 56°37' E 007°42'4 8.9
2017-Aug-14 04:01N 56°41' E 007°42'4 8.6
2017-Aug-14 03:29N 56°46' E 007°42'5 9.0
2017-Aug-14 02:59N 56°50' E 007°39'4 9.1
2017-Aug-14 02:30N 56°54' E 007°36'5 9.0
2017-Aug-14 01:59N 56°59' E 007°34'45 8.7
2017-Aug-13 20:47N 57°42' E 007°08'2 8.6
2017-Aug-13 20:30N 57°44' E 007°07'4 8.5
2017-Aug-13 20:00N 57°48' E 007°04'4 8.3
2017-Aug-13 19:30N 57°52' E 007°02'4 8.3
2017-Aug-13 19:00N 57°56' E 006°60'4 8.6
2017-Aug-13 18:30N 58°00' E 006°57'3 6.5
2017-Aug-13 18:01N 58°03' E 006°59'0 0.0
2017-Aug-13 17:30N 58°03' E 006°59'0 0.0
2017-Aug-13 16:57N 58°03' E 006°59'0 0.0
2017-Aug-13 16:30N 58°03' E 006°59'0 0.0
2017-Aug-13 16:00N 58°03' E 006°59'0 0.0
2017-Aug-13 15:30N 58°03' E 006°59'0 0.0
2017-Aug-13 15:00N 58°03' E 006°59'0 0.0
2017-Aug-13 14:30N 58°03' E 006°59'0 0.0
2017-Aug-13 14:00N 58°03' E 006°59'0 0.0
2017-Aug-13 13:30N 58°03' E 006°59'0 0.0
2017-Aug-13 13:00N 58°03' E 006°59'0 0.0
2017-Aug-13 12:30N 58°03' E 006°59'0 0.0
2017-Aug-13 12:00N 58°03' E 006°59'1 1.1
2017-Aug-13 11:30N 58°03' E 006°58'4 8.6
2017-Aug-13 11:00N 58°01' E 006°51'1 1.2
2017-Aug-13 10:30N 58°00' E 006°52'3 5.5
2017-Aug-13 10:00N 58°01' E 006°47'0 0.7
2017-Aug-13 09:30N 58°02' E 006°47'2 4.0
2017-Aug-13 09:00N 58°01' E 006°51'2 4.0
2017-Aug-13 08:30N 58°00' E 006°54'2 3.3
2017-Aug-13 08:00N 57°59' E 006°56'3 6.5
2017-Aug-13 07:30N 57°60' E 006°50'3 6.7
2017-Aug-13 07:00N 58°00' E 006°44'3 6.7
2017-Aug-13 06:30N 58°02' E 006°38'3 6.7
2017-Aug-13 06:00N 58°03' E 006°32'3 6.3
2017-Aug-13 05:30N 58°04' E 006°26'2 5.0
2017-Aug-13 05:00N 58°04' E 006°22'2 3.1
2017-Aug-13 04:30N 58°03' E 006°24'1 2.6
2017-Aug-13 04:00N 58°02' E 006°26'1 2.3
2017-Aug-13 03:30N 58°01' E 006°28'1 2.3
2017-Aug-13 03:00N 58°01' E 006°30'1 2.2
2017-Aug-13 02:30N 58°01' E 006°32'1 2.3
2017-Aug-13 02:00N 58°00' E 006°34'1 2.3
2017-Aug-13 01:30N 58°00' E 006°36'1 1.8
2017-Aug-13 01:00N 58°00' E 006°38'1 2.0
2017-Aug-13 00:30N 58°00' E 006°40'1 2.1
2017-Aug-13 00:00N 57°60' E 006°42'1 2.4
2017-Aug-12 23:30N 57°60' E 006°44'1 2.8
2017-Aug-12 23:00N 57°59' E 006°46'1 2.9
2017-Aug-12 22:30N 57°59' E 006°49'2 3.1
2017-Aug-12 22:00N 57°59' E 006°52'1 1.6
2017-Aug-12 21:30N 57°59' E 006°53'3 6.9
2017-Aug-12 21:00N 58°01' E 006°47'4 7.4
2017-Aug-12 20:30N 58°02' E 006°41'1 2.3
2017-Aug-12 20:00N 58°02' E 006°43'2 3.8
2017-Aug-12 19:30N 58°01' E 006°46'2 3.2
2017-Aug-12 19:00N 57°60' E 006°48'2 3.3
2017-Aug-12 18:30N 57°59' E 006°51'2 4.9
2017-Aug-12 18:00N 57°57' E 006°53'3 5.6
2017-Aug-12 17:30N 57°54' E 006°54'3 6.0
2017-Aug-12 17:00N 57°51' E 006°55'3 6.3
2017-Aug-12 16:30N 57°48' E 006°58'3 7.0
2017-Aug-12 16:00N 57°45' E 007°01'114 8.5
2017-Aug-12 02:29N 55°53' E 007°36'4 9.0
2017-Aug-12 02:00N 55°48' E 007°33'4 8.8
2017-Aug-12 01:30N 55°44' E 007°30'4 8.2
2017-Aug-12 01:00N 55°41' E 007°28'4 8.3
2017-Aug-12 00:31N 55°37' E 007°26'4 7.8
2017-Aug-12 00:00N 55°33' E 007°24'4 7.6
2017-Aug-11 23:30N 55°29' E 007°25'4 7.7
2017-Aug-11 23:00N 55°25' E 007°25'4 7.9
2017-Aug-11 22:29N 55°21' E 007°26'4 8.3
2017-Aug-11 21:57N 55°17' E 007°26'4 8.4
2017-Aug-11 21:30N 55°13' E 007°26'5 8.5
2017-Aug-11 20:58N 55°08' E 007°26'4 8.6
2017-Aug-11 20:30N 55°04' E 007°26'4 8.7
2017-Aug-11 20:00N 54°60' E 007°26'4 8.8
2017-Aug-11 19:30N 54°56' E 007°26'5 9.1
2017-Aug-11 19:00N 54°51' E 007°27'6 9.3
2017-Aug-11 18:22N 54°45' E 007°26'3 0.1
2017-Aug-10 05:36N 54°48' E 007°24'1 8.5
2017-Aug-10 05:30N 54°48' E 007°24'4 8.3
2017-Aug-10 05:00N 54°53' E 007°24'4 8.1
2017-Aug-10 04:30N 54°57' E 007°24'4 8.3
2017-Aug-10 04:01N 55°01' E 007°24'4 8.1
2017-Aug-10 03:30N 55°05' E 007°24'4 7.9
2017-Aug-10 03:00N 55°09' E 007°24'4 8.2
2017-Aug-10 02:31N 55°13' E 007°24'4 8.1
2017-Aug-10 02:00N 55°17' E 007°24'88 6.3
2017-Aug-09 11:53N 56°41' E 008°14'0 0.0
2017-Aug-09 11:26N 56°41' E 008°14'0 0.0
2017-Aug-09 10:56N 56°41' E 008°14'0 0.0
2017-Aug-09 10:29N 56°41' E 008°14'46 2.1
2017-Aug-08 12:53N 55°58' E 007°45'3 9.0
2017-Aug-08 12:30N 55°54' E 007°42'4 8.7
2017-Aug-08 12:00N 55°50' E 007°39'4 8.7
2017-Aug-08 11:30N 55°46' E 007°36'4 8.6
2017-Aug-08 11:00N 55°43' E 007°32'4 8.4
2017-Aug-08 10:30N 55°39' E 007°29'4 8.1
2017-Aug-08 10:00N 55°35' E 007°26'4 8.5
2017-Aug-08 09:30N 55°31' E 007°26'4 8.5
2017-Aug-08 09:00N 55°27' E 007°25'5 8.5
2017-Aug-08 08:28N 55°22' E 007°25'4 8.7
2017-Aug-08 08:00N 55°18' E 007°25'4 8.7
2017-Aug-08 07:30N 55°14' E 007°25'4 8.7
2017-Aug-08 07:00N 55°09' E 007°25'4 8.8
2017-Aug-08 06:30N 55°05' E 007°26'4 8.9
2017-Aug-08 06:00N 55°00' E 007°26'4 8.9
2017-Aug-08 05:30N 54°56' E 007°26'5 9.1
2017-Aug-08 05:00N 54°52' E 007°26'5 9.3
2017-Aug-08 04:30N 54°47' E 007°26'5 9.5
2017-Aug-08 04:00N 54°42' E 007°26'7 9.5
2017-Aug-08 03:14N 54°35' E 007°26'  
Track history (hours):
 
Tides and Currents Weather Stations Pressure Air Temp Water Temp Dewpoint Dewpoint Depression Visibility Wind Speed Wind Dir Waves Ship Positions

Alba Rousing

Last reported at 2017-Aug-17 15:26 UTC. Time now 2017-Aug-17 15:37 UTC.
Position N 58°03' E 006°59'.

Length 79 m; draft 2.4 m.

Type: Ship. MMSI: 220439000.

Date/timePositionNaut miles runAvg speedWind from/ knotsBaromVisibWave heightAir tempDewpointWater temp
2017-Aug-17 15:26N 58°03' E 006°59'0 0.0
2017-Aug-17 14:59N 58°03' E 006°59'0 0.0
2017-Aug-17 14:29N 58°03' E 006°59'0 0.0
2017-Aug-17 13:56N 58°03' E 006°59'0 0.0
2017-Aug-17 13:29N 58°03' E 006°59'0 0.0
2017-Aug-17 12:59N 58°03' E 006°59'0 0.0
2017-Aug-17 12:29N 58°03' E 006°59'0 0.0
2017-Aug-17 11:59N 58°03' E 006°59'0 0.0
2017-Aug-17 11:29N 58°03' E 006°59'0 0.1
2017-Aug-17 11:01N 58°03' E 006°59'3 6.2
2017-Aug-17 10:30N 58°03' E 006°53'3 6.2
2017-Aug-17 10:00N 58°01' E 006°51'3 5.0
2017-Aug-17 09:31N 57°58' E 006°53'1 1.3
2017-Aug-17 09:00N 57°59' E 006°53'2 3.2
2017-Aug-17 08:30N 58°00' E 006°52'2 4.4
2017-Aug-17 08:00N 57°58' E 006°52'5 9.5
2017-Aug-17 07:30N 57°54' E 006°54'510.0
2017-Aug-17 07:00N 57°49' E 006°57'5 9.7
2017-Aug-17 06:30N 57°44' E 007°00'114 9.1
2017-Aug-16 18:02N 55°52' E 007°35'1 9.5
2017-Aug-16 17:56N 55°51' E 007°35'4 9.3
2017-Aug-16 17:30N 55°47' E 007°33'5 9.1
2017-Aug-16 17:00N 55°43' E 007°30'4 8.9
2017-Aug-16 16:30N 55°39' E 007°28'4 8.7
2017-Aug-16 16:00N 55°35' E 007°25'4 8.8
2017-Aug-16 15:30N 55°30' E 007°26'4 8.7
2017-Aug-16 15:00N 55°26' E 007°26'4 8.7
2017-Aug-16 14:30N 55°21' E 007°27'4 8.8
2017-Aug-16 14:00N 55°17' E 007°27'4 8.6
2017-Aug-16 13:30N 55°13' E 007°27'4 8.6
2017-Aug-16 13:00N 55°09' E 007°26'4 8.7
2017-Aug-16 12:30N 55°04' E 007°26'4 8.8
2017-Aug-16 12:00N 54°60' E 007°26'5 9.0
2017-Aug-16 11:30N 54°55' E 007°26'5 9.2
2017-Aug-16 11:00N 54°51' E 007°26'4 9.1
2017-Aug-16 10:30N 54°46' E 007°26'56 9.1
2017-Aug-16 04:18N 53°51' E 007°47'3 8.8
2017-Aug-16 03:58N 53°48' E 007°48'3 6.3
2017-Aug-16 03:26N 53°46' E 007°52'0 0.7
2017-Aug-16 03:00N 53°46' E 007°52'0 0.0
2017-Aug-16 02:26N 53°46' E 007°52'0 0.0
2017-Aug-16 01:52N 53°46' E 007°52'0 0.0
2017-Aug-16 01:28N 53°46' E 007°52'0 0.0
2017-Aug-16 00:52N 53°46' E 007°52'0 0.0
2017-Aug-16 00:28N 53°46' E 007°52'0 0.0
2017-Aug-15 23:58N 53°46' E 007°52'0 0.0
2017-Aug-15 23:28N 53°46' E 007°52'0 0.0
2017-Aug-15 22:55N 53°46' E 007°52'0 0.0
2017-Aug-15 22:28N 53°46' E 007°52'0 0.0
2017-Aug-15 21:58N 53°46' E 007°52'0 0.0
2017-Aug-15 21:22N 53°46' E 007°52'0 0.0
2017-Aug-15 20:58N 53°46' E 007°52'0 0.0
2017-Aug-15 20:04N 53°46' E 007°52'0 0.0
2017-Aug-15 19:58N 53°46' E 007°52'0 0.0
2017-Aug-15 18:28N 53°46' E 007°52'0 0.0
2017-Aug-15 16:57N 53°46' E 007°52'0 0.0
2017-Aug-15 16:29N 53°46' E 007°52'0 0.0
2017-Aug-15 16:00N 53°46' E 007°52'61 2.8
2017-Aug-14 18:27N 54°45' E 007°24'3 7.8
2017-Aug-14 18:00N 54°48' E 007°24'4 7.8
2017-Aug-14 17:30N 54°52' E 007°24'4 7.7
2017-Aug-14 17:00N 54°56' E 007°24'4 7.7
2017-Aug-14 16:30N 55°00' E 007°25'4 7.8
2017-Aug-14 16:01N 55°04' E 007°24'4 7.8
2017-Aug-14 15:30N 55°08' E 007°24'4 7.9
2017-Aug-14 15:00N 55°12' E 007°24'4 8.2
2017-Aug-14 14:30N 55°16' E 007°24'4 8.4
2017-Aug-14 14:00N 55°20' E 007°25'5 8.5
2017-Aug-14 13:25N 55°25' E 007°25'3 8.3
2017-Aug-14 13:00N 55°29' E 007°25'4 8.3
2017-Aug-14 12:30N 55°33' E 007°26'4 8.4
2017-Aug-14 12:00N 55°37' E 007°26'4 8.2
2017-Aug-14 11:30N 55°41' E 007°28'4 8.2
2017-Aug-14 11:00N 55°45' E 007°31'4 8.0
2017-Aug-14 10:29N 55°49' E 007°33'45 8.0
2017-Aug-14 04:54N 56°33' E 007°42'4 9.1
2017-Aug-14 04:29N 56°37' E 007°42'4 8.9
2017-Aug-14 04:01N 56°41' E 007°42'4 8.6
2017-Aug-14 03:29N 56°46' E 007°42'5 9.0
2017-Aug-14 02:59N 56°50' E 007°39'4 9.1
2017-Aug-14 02:30N 56°54' E 007°36'5 9.0
2017-Aug-14 01:59N 56°59' E 007°34'45 8.7
2017-Aug-13 20:47N 57°42' E 007°08'2 8.6
2017-Aug-13 20:30N 57°44' E 007°07'4 8.5
2017-Aug-13 20:00N 57°48' E 007°04'4 8.3
2017-Aug-13 19:30N 57°52' E 007°02'4 8.3
2017-Aug-13 19:00N 57°56' E 006°60'4 8.6
2017-Aug-13 18:30N 58°00' E 006°57'3 6.5
2017-Aug-13 18:01N 58°03' E 006°59'0 0.0
2017-Aug-13 17:30N 58°03' E 006°59'0 0.0
2017-Aug-13 16:57N 58°03' E 006°59'0 0.0
2017-Aug-13 16:30N 58°03' E 006°59'0 0.0
2017-Aug-13 16:00N 58°03' E 006°59'0 0.0
2017-Aug-13 15:30N 58°03' E 006°59'0 0.0
2017-Aug-13 15:00N 58°03' E 006°59'0 0.0
2017-Aug-13 14:30N 58°03' E 006°59'0 0.0
2017-Aug-13 14:00N 58°03' E 006°59'0 0.0
2017-Aug-13 13:30N 58°03' E 006°59'0 0.0
2017-Aug-13 13:00N 58°03' E 006°59'0 0.0
2017-Aug-13 12:30N 58°03' E 006°59'0 0.0
2017-Aug-13 12:00N 58°03' E 006°59'1 1.1
2017-Aug-13 11:30N 58°03' E 006°58'4 8.6
2017-Aug-13 11:00N 58°01' E 006°51'1 1.2
2017-Aug-13 10:30N 58°00' E 006°52'3 5.5
2017-Aug-13 10:00N 58°01' E 006°47'0 0.7
2017-Aug-13 09:30N 58°02' E 006°47'2 4.0
2017-Aug-13 09:00N 58°01' E 006°51'2 4.0
2017-Aug-13 08:30N 58°00' E 006°54'2 3.3
2017-Aug-13 08:00N 57°59' E 006°56'3 6.5
2017-Aug-13 07:30N 57°60' E 006°50'3 6.7
2017-Aug-13 07:00N 58°00' E 006°44'3 6.7
2017-Aug-13 06:30N 58°02' E 006°38'3 6.7
2017-Aug-13 06:00N 58°03' E 006°32'3 6.3
2017-Aug-13 05:30N 58°04' E 006°26'2 5.0
2017-Aug-13 05:00N 58°04' E 006°22'2 3.1
2017-Aug-13 04:30N 58°03' E 006°24'1 2.6
2017-Aug-13 04:00N 58°02' E 006°26'1 2.3
2017-Aug-13 03:30N 58°01' E 006°28'1 2.3
2017-Aug-13 03:00N 58°01' E 006°30'1 2.2
2017-Aug-13 02:30N 58°01' E 006°32'1 2.3
2017-Aug-13 02:00N 58°00' E 006°34'1 2.3
2017-Aug-13 01:30N 58°00' E 006°36'1 1.8
2017-Aug-13 01:00N 58°00' E 006°38'1 2.0
2017-Aug-13 00:30N 58°00' E 006°40'1 2.1
2017-Aug-13 00:00N 57°60' E 006°42'1 2.4
2017-Aug-12 23:30N 57°60' E 006°44'1 2.8
2017-Aug-12 23:00N 57°59' E 006°46'1 2.9
2017-Aug-12 22:30N 57°59' E 006°49'2 3.1
2017-Aug-12 22:00N 57°59' E 006°52'1 1.6
2017-Aug-12 21:30N 57°59' E 006°53'3 6.9
2017-Aug-12 21:00N 58°01' E 006°47'4 7.4
2017-Aug-12 20:30N 58°02' E 006°41'1 2.3
2017-Aug-12 20:00N 58°02' E 006°43'2 3.8
2017-Aug-12 19:30N 58°01' E 006°46'2 3.2
2017-Aug-12 19:00N 57°60' E 006°48'2 3.3
2017-Aug-12 18:30N 57°59' E 006°51'2 4.9
2017-Aug-12 18:00N 57°57' E 006°53'3 5.6
2017-Aug-12 17:30N 57°54' E 006°54'3 6.0
2017-Aug-12 17:00N 57°51' E 006°55'3 6.3
2017-Aug-12 16:30N 57°48' E 006°58'3 7.0
2017-Aug-12 16:00N 57°45' E 007°01'114 8.5
2017-Aug-12 02:29N 55°53' E 007°36'4 9.0
2017-Aug-12 02:00N 55°48' E 007°33'4 8.8
2017-Aug-12 01:30N 55°44' E 007°30'4 8.2
2017-Aug-12 01:00N 55°41' E 007°28'4 8.3
2017-Aug-12 00:31N 55°37' E 007°26'4 7.8
2017-Aug-12 00:00N 55°33' E 007°24'4 7.6
2017-Aug-11 23:30N 55°29' E 007°25'4 7.7
2017-Aug-11 23:00N 55°25' E 007°25'4 7.9
2017-Aug-11 22:29N 55°21' E 007°26'4 8.3
2017-Aug-11 21:57N 55°17' E 007°26'4 8.4
2017-Aug-11 21:30N 55°13' E 007°26'5 8.5
2017-Aug-11 20:58N 55°08' E 007°26'4 8.6
2017-Aug-11 20:30N 55°04' E 007°26'4 8.7
2017-Aug-11 20:00N 54°60' E 007°26'4 8.8
2017-Aug-11 19:30N 54°56' E 007°26'5 9.1
2017-Aug-11 19:00N 54°51' E 007°27'6 9.3
2017-Aug-11 18:22N 54°45' E 007°26'3 0.1
2017-Aug-10 05:36N 54°48' E 007°24'1 8.5
2017-Aug-10 05:30N 54°48' E 007°24'4 8.3
2017-Aug-10 05:00N 54°53' E 007°24'4 8.1
2017-Aug-10 04:30N 54°57' E 007°24'4 8.3
2017-Aug-10 04:01N 55°01' E 007°24'4 8.1
2017-Aug-10 03:30N 55°05' E 007°24'4 7.9
2017-Aug-10 03:00N 55°09' E 007°24'4 8.2
2017-Aug-10 02:31N 55°13' E 007°24'4 8.1
2017-Aug-10 02:00N 55°17' E 007°24'88 6.3
2017-Aug-09 11:53N 56°41' E 008°14'0 0.0
2017-Aug-09 11:26N 56°41' E 008°14'0 0.0
2017-Aug-09 10:56N 56°41' E 008°14'0 0.0
2017-Aug-09 10:29N 56°41' E 008°14'46 2.1
2017-Aug-08 12:53N 55°58' E 007°45'3 9.0
2017-Aug-08 12:30N 55°54' E 007°42'4 8.7
2017-Aug-08 12:00N 55°50' E 007°39'4 8.7
2017-Aug-08 11:30N 55°46' E 007°36'4 8.6
2017-Aug-08 11:00N 55°43' E 007°32'4 8.4
2017-Aug-08 10:30N 55°39' E 007°29'4 8.1
2017-Aug-08 10:00N 55°35' E 007°26'4 8.5
2017-Aug-08 09:30N 55°31' E 007°26'4 8.5
2017-Aug-08 09:00N 55°27' E 007°25'5 8.5
2017-Aug-08 08:28N 55°22' E 007°25'4 8.7
2017-Aug-08 08:00N 55°18' E 007°25'4 8.7
2017-Aug-08 07:30N 55°14' E 007°25'4 8.7
2017-Aug-08 07:00N 55°09' E 007°25'4 8.8
2017-Aug-08 06:30N 55°05' E 007°26'4 8.9
2017-Aug-08 06:00N 55°00' E 007°26'4 8.9
2017-Aug-08 05:30N 54°56' E 007°26'5 9.1
2017-Aug-08 05:00N 54°52' E 007°26'5 9.3
2017-Aug-08 04:30N 54°47' E 007°26'5 9.5
2017-Aug-08 04:00N 54°42' E 007°26'7 9.5
2017-Aug-08 03:14N 54°35' E 007°26'  

Dump ship's entire track history